sensor_id;sensor_type;location;lat;lon;timestamp;temperature;humidity
72114;SHT31;59989;46.220;19.888;2023-06-05T00:01:03;15.42;84.27
72114;SHT31;59989;46.220;19.888;2023-06-05T00:04:06;15.34;84.64
72114;SHT31;59989;46.220;19.888;2023-06-05T00:07:09;15.31;84.80
72114;SHT31;59989;46.220;19.888;2023-06-05T00:10:11;15.25;84.95
72114;SHT31;59989;46.220;19.888;2023-06-05T00:13:15;15.19;84.78
72114;SHT31;59989;46.220;19.888;2023-06-05T00:16:18;15.15;84.94
72114;SHT31;59989;46.220;19.888;2023-06-05T00:19:21;15.09;85.09
72114;SHT31;59989;46.220;19.888;2023-06-05T00:22:26;15.08;85.22
72114;SHT31;59989;46.220;19.888;2023-06-05T00:25:30;15.04;85.34
72114;SHT31;59989;46.220;19.888;2023-06-05T00:28:32;14.99;85.34
72114;SHT31;59989;46.220;19.888;2023-06-05T00:31:36;14.95;85.54
72114;SHT31;59989;46.220;19.888;2023-06-05T00:34:38;14.91;85.67
72114;SHT31;59989;46.220;19.888;2023-06-05T00:37:41;14.85;85.92
72114;SHT31;59989;46.220;19.888;2023-06-05T00:40:46;14.81;86.14
72114;SHT31;59989;46.220;19.888;2023-06-05T00:43:48;14.81;86.18
72114;SHT31;59989;46.220;19.888;2023-06-05T00:46:52;14.76;86.63
72114;SHT31;59989;46.220;19.888;2023-06-05T00:49:54;14.71;86.77
72114;SHT31;59989;46.220;19.888;2023-06-05T00:52:58;14.59;87.05
72114;SHT31;59989;46.220;19.888;2023-06-05T00:56:01;14.57;87.28
72114;SHT31;59989;46.220;19.888;2023-06-05T00:59:05;14.49;87.44
72114;SHT31;59989;46.220;19.888;2023-06-05T01:02:08;14.46;87.64
72114;SHT31;59989;46.220;19.888;2023-06-05T01:05:11;14.40;87.70
72114;SHT31;59989;46.220;19.888;2023-06-05T01:08:13;14.36;88.21
72114;SHT31;59989;46.220;19.888;2023-06-05T01:14:31;14.20;88.80
72114;SHT31;59989;46.220;19.888;2023-06-05T01:17:36;14.16;89.03
72114;SHT31;59989;46.220;19.888;2023-06-05T01:20:39;14.06;88.80
72114;SHT31;59989;46.220;19.888;2023-06-05T01:23:42;14.04;88.96
72114;SHT31;59989;46.220;19.888;2023-06-05T01:27:21;13.97;89.07
72114;SHT31;59989;46.220;19.888;2023-06-05T01:30:30;13.85;89.95
72114;SHT31;59989;46.220;19.888;2023-06-05T01:33:42;13.85;90.49
72114;SHT31;59989;46.220;19.888;2023-06-05T01:36:48;13.82;90.59
72114;SHT31;59989;46.220;19.888;2023-06-05T01:39:51;13.74;90.47
72114;SHT31;59989;46.220;19.888;2023-06-05T01:42:55;13.70;90.87
72114;SHT31;59989;46.220;19.888;2023-06-05T01:45:59;13.71;90.93
72114;SHT31;59989;46.220;19.888;2023-06-05T01:49:02;13.65;91.07
72114;SHT31;59989;46.220;19.888;2023-06-05T01:52:05;13.57;90.99
72114;SHT31;59989;46.220;19.888;2023-06-05T01:55:08;13.50;91.08
72114;SHT31;59989;46.220;19.888;2023-06-05T01:58:17;13.47;91.22
72114;SHT31;59989;46.220;19.888;2023-06-05T02:01:20;13.44;91.56
72114;SHT31;59989;46.220;19.888;2023-06-05T02:04:25;13.40;91.52
72114;SHT31;59989;46.220;19.888;2023-06-05T02:07:29;13.31;91.81
72114;SHT31;59989;46.220;19.888;2023-06-05T02:10:36;13.26;92.08
72114;SHT31;59989;46.220;19.888;2023-06-05T02:13:39;13.21;92.24
72114;SHT31;59989;46.220;19.888;2023-06-05T02:16:46;13.14;92.23
72114;SHT31;59989;46.220;19.888;2023-06-05T02:19:51;13.12;92.26
72114;SHT31;59989;46.220;19.888;2023-06-05T02:22:53;13.13;93.15
72114;SHT31;59989;46.220;19.888;2023-06-05T02:25:57;13.16;93.32
72114;SHT31;59989;46.220;19.888;2023-06-05T02:28:59;13.16;93.23
72114;SHT31;59989;46.220;19.888;2023-06-05T02:32:03;13.14;93.30
72114;SHT31;59989;46.220;19.888;2023-06-05T02:35:07;13.13;92.94
72114;SHT31;59989;46.220;19.888;2023-06-05T02:38:09;13.07;93.11
72114;SHT31;59989;46.220;19.888;2023-06-05T02:41:19;13.07;93.60
72114;SHT31;59989;46.220;19.888;2023-06-05T02:44:23;13.07;93.75
72114;SHT31;59989;46.220;19.888;2023-06-05T02:47:26;13.04;93.67
72114;SHT31;59989;46.220;19.888;2023-06-05T02:50:28;13.06;93.56
72114;SHT31;59989;46.220;19.888;2023-06-05T02:53:33;13.07;93.55
72114;SHT31;59989;46.220;19.888;2023-06-05T02:56:36;13.06;93.37
72114;SHT31;59989;46.220;19.888;2023-06-05T02:59:39;13.00;93.22
72114;SHT31;59989;46.220;19.888;2023-06-05T03:02:47;13.00;93.34
72114;SHT31;59989;46.220;19.888;2023-06-05T03:05:54;12.99;93.21
72114;SHT31;59989;46.220;19.888;2023-06-05T03:08:56;12.91;92.97
72114;SHT31;59989;46.220;19.888;2023-06-05T03:11:59;12.86;93.09
72114;SHT31;59989;46.220;19.888;2023-06-05T03:15:03;12.83;93.24
72114;SHT31;59989;46.220;19.888;2023-06-05T03:18:07;12.85;93.55
72114;SHT31;59989;46.220;19.888;2023-06-05T03:21:11;12.86;93.54
72114;SHT31;59989;46.220;19.888;2023-06-05T03:24:14;12.85;93.38
72114;SHT31;59989;46.220;19.888;2023-06-05T03:27:23;12.85;93.35
72114;SHT31;59989;46.220;19.888;2023-06-05T03:30:26;12.93;93.04
72114;SHT31;59989;46.220;19.888;2023-06-05T03:33:31;13.03;93.09
72114;SHT31;59989;46.220;19.888;2023-06-05T03:36:33;13.14;92.74
72114;SHT31;59989;46.220;19.888;2023-06-05T03:39:40;13.19;92.51
72114;SHT31;59989;46.220;19.888;2023-06-05T03:42:42;13.20;92.37
72114;SHT31;59989;46.220;19.888;2023-06-05T03:45:45;13.24;92.30
72114;SHT31;59989;46.220;19.888;2023-06-05T03:48:49;13.30;91.86
72114;SHT31;59989;46.220;19.888;2023-06-05T03:51:55;13.33;91.90
72114;SHT31;59989;46.220;19.888;2023-06-05T03:55:03;13.41;91.73
72114;SHT31;59989;46.220;19.888;2023-06-05T03:58:13;13.46;91.61
72114;SHT31;59989;46.220;19.888;2023-06-05T04:01:18;13.54;91.48
72114;SHT31;59989;46.220;19.888;2023-06-05T04:04:21;13.67;90.95
72114;SHT31;59989;46.220;19.888;2023-06-05T04:07:25;13.72;90.72
72114;SHT31;59989;46.220;19.888;2023-06-05T04:10:28;13.74;90.26
72114;SHT31;59989;46.220;19.888;2023-06-05T04:13:31;13.82;89.81
72114;SHT31;59989;46.220;19.888;2023-06-05T04:16:39;13.86;89.21
72114;SHT31;59989;46.220;19.888;2023-06-05T04:19:43;13.94;89.47
72114;SHT31;59989;46.220;19.888;2023-06-05T04:22:45;14.06;88.58
72114;SHT31;59989;46.220;19.888;2023-06-05T04:25:49;14.23;89.14
72114;SHT31;59989;46.220;19.888;2023-06-05T04:28:52;14.46;88.13
72114;SHT31;59989;46.220;19.888;2023-06-05T04:31:54;14.63;88.01
72114;SHT31;59989;46.220;19.888;2023-06-05T04:34:57;14.73;86.85
72114;SHT31;59989;46.220;19.888;2023-06-05T04:37:59;14.91;86.39
72114;SHT31;59989;46.220;19.888;2023-06-05T04:41:05;15.06;86.03
72114;SHT31;59989;46.220;19.888;2023-06-05T04:44:08;15.25;85.54
72114;SHT31;59989;46.220;19.888;2023-06-05T04:47:10;15.40;85.23
72114;SHT31;59989;46.220;19.888;2023-06-05T04:50:24;15.50;84.04
72114;SHT31;59989;46.220;19.888;2023-06-05T04:53:34;15.66;84.10
72114;SHT31;59989;46.220;19.888;2023-06-05T04:56:37;15.80;83.84
72114;SHT31;59989;46.220;19.888;2023-06-05T04:59:45;16.00;83.32
72114;SHT31;59989;46.220;19.888;2023-06-05T05:02:49;16.14;83.33
72114;SHT31;59989;46.220;19.888;2023-06-05T05:05:54;16.26;83.19
72114;SHT31;59989;46.220;19.888;2023-06-05T05:08:56;16.29;81.24
72114;SHT31;59989;46.220;19.888;2023-06-05T05:12:04;16.36;82.47
72114;SHT31;59989;46.220;19.888;2023-06-05T05:15:07;16.41;81.83
72114;SHT31;59989;46.220;19.888;2023-06-05T05:18:10;16.52;82.50
72114;SHT31;59989;46.220;19.888;2023-06-05T05:21:13;16.62;81.61
72114;SHT31;59989;46.220;19.888;2023-06-05T05:24:16;16.70;81.08
72114;SHT31;59989;46.220;19.888;2023-06-05T05:27:20;16.81;81.44
72114;SHT31;59989;46.220;19.888;2023-06-05T05:30:23;16.96;80.40
72114;SHT31;59989;46.220;19.888;2023-06-05T05:33:27;17.09;80.49
72114;SHT31;59989;46.220;19.888;2023-06-05T05:36:29;17.16;79.75
72114;SHT31;59989;46.220;19.888;2023-06-05T05:39:32;17.28;79.51
72114;SHT31;59989;46.220;19.888;2023-06-05T05:42:34;17.49;79.03
72114;SHT31;59989;46.220;19.888;2023-06-05T05:45:37;17.55;79.22
72114;SHT31;59989;46.220;19.888;2023-06-05T05:48:41;17.75;78.59
72114;SHT31;59989;46.220;19.888;2023-06-05T05:51:44;17.93;77.78
72114;SHT31;59989;46.220;19.888;2023-06-05T05:54:47;18.14;77.10
72114;SHT31;59989;46.220;19.888;2023-06-05T05:57:49;18.33;76.88
72114;SHT31;59989;46.220;19.888;2023-06-05T06:00:52;18.53;76.51
72114;SHT31;59989;46.220;19.888;2023-06-05T06:03:54;18.58;75.51
72114;SHT31;59989;46.220;19.888;2023-06-05T06:06:57;18.78;75.95
72114;SHT31;59989;46.220;19.888;2023-06-05T06:09:59;18.58;75.52
72114;SHT31;59989;46.220;19.888;2023-06-05T06:13:02;18.61;75.94
72114;SHT31;59989;46.220;19.888;2023-06-05T06:16:06;18.65;76.22
72114;SHT31;59989;46.220;19.888;2023-06-05T06:19:09;18.65;75.85
72114;SHT31;59989;46.220;19.888;2023-06-05T06:22:16;18.58;75.53
72114;SHT31;59989;46.220;19.888;2023-06-05T06:25:20;18.53;75.70
72114;SHT31;59989;46.220;19.888;2023-06-05T06:28:23;18.72;75.63
72114;SHT31;59989;46.220;19.888;2023-06-05T06:31:26;19.03;74.81
72114;SHT31;59989;46.220;19.888;2023-06-05T06:34:28;19.39;74.02
72114;SHT31;59989;46.220;19.888;2023-06-05T06:37:33;19.56;73.41
72114;SHT31;59989;46.220;19.888;2023-06-05T06:40:35;19.66;73.04
72114;SHT31;59989;46.220;19.888;2023-06-05T06:43:38;19.77;71.87
72114;SHT31;59989;46.220;19.888;2023-06-05T06:46:42;20.04;71.85
72114;SHT31;59989;46.220;19.888;2023-06-05T06:49:44;20.30;71.01
72114;SHT31;59989;46.220;19.888;2023-06-05T06:52:47;20.49;70.39
72114;SHT31;59989;46.220;19.888;2023-06-05T06:55:49;20.63;69.48
72114;SHT31;59989;46.220;19.888;2023-06-05T06:59:12;20.45;69.90
72114;SHT31;59989;46.220;19.888;2023-06-05T07:02:18;20.60;69.75
72114;SHT31;59989;46.220;19.888;2023-06-05T07:05:20;20.81;68.98
72114;SHT31;59989;46.220;19.888;2023-06-05T07:08:23;21.01;68.66
72114;SHT31;59989;46.220;19.888;2023-06-05T07:11:26;21.30;67.58
72114;SHT31;59989;46.220;19.888;2023-06-05T07:14:28;21.24;67.05
72114;SHT31;59989;46.220;19.888;2023-06-05T07:17:31;21.39;66.65
72114;SHT31;59989;46.220;19.888;2023-06-05T07:20:33;21.49;67.62
72114;SHT31;59989;46.220;19.888;2023-06-05T07:23:36;21.45;66.90
72114;SHT31;59989;46.220;19.888;2023-06-05T07:26:39;21.75;66.63
72114;SHT31;59989;46.220;19.888;2023-06-05T07:29:41;21.89;66.47
72114;SHT31;59989;46.220;19.888;2023-06-05T07:32:44;22.33;65.88
72114;SHT31;59989;46.220;19.888;2023-06-05T07:35:47;22.55;65.15
72114;SHT31;59989;46.220;19.888;2023-06-05T07:38:50;22.79;64.86
72114;SHT31;59989;46.220;19.888;2023-06-05T07:41:53;22.60;64.03
72114;SHT31;59989;46.220;19.888;2023-06-05T07:45:00;22.57;63.85
72114;SHT31;59989;46.220;19.888;2023-06-05T07:48:03;22.68;63.75
72114;SHT31;59989;46.220;19.888;2023-06-05T07:51:06;23.13;63.33
72114;SHT31;59989;46.220;19.888;2023-06-05T07:54:13;23.40;62.60
72114;SHT31;59989;46.220;19.888;2023-06-05T07:57:15;23.54;61.33
72114;SHT31;59989;46.220;19.888;2023-06-05T08:00:22;23.64;61.18
72114;SHT31;59989;46.220;19.888;2023-06-05T08:03:25;23.66;60.47
72114;SHT31;59989;46.220;19.888;2023-06-05T08:06:28;23.33;61.21
72114;SHT31;59989;46.220;19.888;2023-06-05T08:09:32;23.58;61.45
72114;SHT31;59989;46.220;19.888;2023-06-05T08:12:36;23.81;59.35
72114;SHT31;59989;46.220;19.888;2023-06-05T08:15:38;24.19;59.65
72114;SHT31;59989;46.220;19.888;2023-06-05T08:18:42;24.05;58.74
72114;SHT31;59989;46.220;19.888;2023-06-05T08:21:44;24.25;57.42
72114;SHT31;59989;46.220;19.888;2023-06-05T08:24:47;24.72;57.46
72114;SHT31;59989;46.220;19.888;2023-06-05T08:27:52;24.53;56.69
72114;SHT31;59989;46.220;19.888;2023-06-05T08:30:55;24.28;57.39
72114;SHT31;59989;46.220;19.888;2023-06-05T08:33:59;24.62;57.20
72114;SHT31;59989;46.220;19.888;2023-06-05T08:37:01;24.64;56.31
72114;SHT31;59989;46.220;19.888;2023-06-05T08:40:05;24.69;57.65
72114;SHT31;59989;46.220;19.888;2023-06-05T08:43:17;25.14;56.71
72114;SHT31;59989;46.220;19.888;2023-06-05T08:46:19;25.20;55.62
72114;SHT31;59989;46.220;19.888;2023-06-05T08:49:25;25.34;56.01
72114;SHT31;59989;46.220;19.888;2023-06-05T08:52:28;25.28;54.82
72114;SHT31;59989;46.220;19.888;2023-06-05T08:55:35;25.52;54.79
72114;SHT31;59989;46.220;19.888;2023-06-05T08:58:40;25.69;55.28
72114;SHT31;59989;46.220;19.888;2023-06-05T09:01:47;25.73;55.64
72114;SHT31;59989;46.220;19.888;2023-06-05T09:04:49;25.96;54.77
72114;SHT31;59989;46.220;19.888;2023-06-05T09:07:52;25.94;54.74
72114;SHT31;59989;46.220;19.888;2023-06-05T09:11:18;26.26;53.66
72114;SHT31;59989;46.220;19.888;2023-06-05T09:14:25;25.86;53.55
72114;SHT31;59989;46.220;19.888;2023-06-05T09:17:28;26.17;53.79
72114;SHT31;59989;46.220;19.888;2023-06-05T09:20:31;26.61;53.99
72114;SHT31;59989;46.220;19.888;2023-06-05T09:23:37;26.59;53.32
72114;SHT31;59989;46.220;19.888;2023-06-05T09:26:52;26.72;52.26
72114;SHT31;59989;46.220;19.888;2023-06-05T09:30:02;26.74;51.77
72114;SHT31;59989;46.220;19.888;2023-06-05T09:33:09;26.62;51.30
72114;SHT31;59989;46.220;19.888;2023-06-05T09:36:12;26.92;52.69
72114;SHT31;59989;46.220;19.888;2023-06-05T09:39:16;26.78;51.56
72114;SHT31;59989;46.220;19.888;2023-06-05T09:42:31;26.88;51.44
72114;SHT31;59989;46.220;19.888;2023-06-05T09:45:43;26.84;50.92
72114;SHT31;59989;46.220;19.888;2023-06-05T09:48:58;27.36;49.76
72114;SHT31;59989;46.220;19.888;2023-06-05T09:52:03;27.46;50.06
72114;SHT31;59989;46.220;19.888;2023-06-05T09:55:06;27.84;49.35
72114;SHT31;59989;46.220;19.888;2023-06-05T09:58:12;27.92;49.59
72114;SHT31;59989;46.220;19.888;2023-06-05T10:01:18;27.17;49.69
72114;SHT31;59989;46.220;19.888;2023-06-05T10:04:24;27.24;49.40
72114;SHT31;59989;46.220;19.888;2023-06-05T10:07:30;27.61;49.55
72114;SHT31;59989;46.220;19.888;2023-06-05T10:10:34;27.77;48.89
72114;SHT31;59989;46.220;19.888;2023-06-05T10:13:39;27.49;50.40
72114;SHT31;59989;46.220;19.888;2023-06-05T10:16:42;27.94;49.28
72114;SHT31;59989;46.220;19.888;2023-06-05T10:19:45;27.63;49.31
72114;SHT31;59989;46.220;19.888;2023-06-05T10:22:48;27.90;49.11
72114;SHT31;59989;46.220;19.888;2023-06-05T10:25:53;27.90;49.51
72114;SHT31;59989;46.220;19.888;2023-06-05T10:38:39;27.72;49.18
72114;SHT31;59989;46.220;19.888;2023-06-05T10:41:43;28.11;48.83
72114;SHT31;59989;46.220;19.888;2023-06-05T10:44:46;28.28;49.02
72114;SHT31;59989;46.220;19.888;2023-06-05T10:47:49;28.57;49.00
72114;SHT31;59989;46.220;19.888;2023-06-05T10:51:32;28.96;48.71
72114;SHT31;59989;46.220;19.888;2023-06-05T11:01:30;28.55;49.02
72114;SHT31;59989;46.220;19.888;2023-06-05T11:07:45;28.73;48.37
72114;SHT31;59989;46.220;19.888;2023-06-05T11:11:05;28.21;50.74
72114;SHT31;59989;46.220;19.888;2023-06-05T11:14:11;28.21;50.14
72114;SHT31;59989;46.220;19.888;2023-06-05T11:17:30;28.01;49.95
72114;SHT31;59989;46.220;19.888;2023-06-05T11:23:36;27.76;50.60
72114;SHT31;59989;46.220;19.888;2023-06-05T11:26:39;27.97;49.93
72114;SHT31;59989;46.220;19.888;2023-06-05T11:29:42;28.18;50.39
72114;SHT31;59989;46.220;19.888;2023-06-05T11:32:46;27.71;50.59
72114;SHT31;59989;46.220;19.888;2023-06-05T11:35:50;27.68;50.61
72114;SHT31;59989;46.220;19.888;2023-06-05T11:38:55;27.70;51.08
72114;SHT31;59989;46.220;19.888;2023-06-05T11:42:00;27.76;50.97
72114;SHT31;59989;46.220;19.888;2023-06-05T11:45:10;27.80;51.08
72114;SHT31;59989;46.220;19.888;2023-06-05T11:48:14;27.64;50.64
72114;SHT31;59989;46.220;19.888;2023-06-05T11:51:16;27.40;51.57
72114;SHT31;59989;46.220;19.888;2023-06-05T11:54:29;26.85;52.39
72114;SHT31;59989;46.220;19.888;2023-06-05T11:57:42;26.99;53.01
72114;SHT31;59989;46.220;19.888;2023-06-05T12:01:12;26.78;52.57
72114;SHT31;59989;46.220;19.888;2023-06-05T12:04:17;26.88;52.85
72114;SHT31;59989;46.220;19.888;2023-06-05T12:07:27;26.74;53.17
72114;SHT31;59989;46.220;19.888;2023-06-05T12:10:35;26.43;53.92
72114;SHT31;59989;46.220;19.888;2023-06-05T12:13:56;26.58;54.04
72114;SHT31;59989;46.220;19.888;2023-06-05T12:16:59;26.67;53.58
72114;SHT31;59989;46.220;19.888;2023-06-05T12:20:03;26.58;54.60
72114;SHT31;59989;46.220;19.888;2023-06-05T12:23:06;26.45;54.15
72114;SHT31;59989;46.220;19.888;2023-06-05T12:26:09;26.43;54.55
72114;SHT31;59989;46.220;19.888;2023-06-05T12:29:12;26.65;53.42
72114;SHT31;59989;46.220;19.888;2023-06-05T12:32:22;26.81;52.99
72114;SHT31;59989;46.220;19.888;2023-06-05T12:35:25;27.24;52.40
72114;SHT31;59989;46.220;19.888;2023-06-05T12:38:29;27.54;51.44
72114;SHT31;59989;46.220;19.888;2023-06-05T12:41:32;28.05;50.51
72114;SHT31;59989;46.220;19.888;2023-06-05T12:44:38;28.11;50.47
72114;SHT31;59989;46.220;19.888;2023-06-05T12:47:41;28.55;49.91
72114;SHT31;59989;46.220;19.888;2023-06-05T12:50:44;28.84;49.09
72114;SHT31;59989;46.220;19.888;2023-06-05T12:53:47;29.38;48.33
72114;SHT31;59989;46.220;19.888;2023-06-05T12:56:49;30.48;46.49
72114;SHT31;59989;46.220;19.888;2023-06-05T12:59:53;30.74;45.37
72114;SHT31;59989;46.220;19.888;2023-06-05T13:02:55;30.83;45.68
72114;SHT31;59989;46.220;19.888;2023-06-05T13:05:58;30.60;46.44
72114;SHT31;59989;46.220;19.888;2023-06-05T13:09:01;29.48;48.52
72114;SHT31;59989;46.220;19.888;2023-06-05T13:12:06;29.56;48.64
72114;SHT31;59989;46.220;19.888;2023-06-05T13:15:09;30.55;46.74
72114;SHT31;59989;46.220;19.888;2023-06-05T13:18:12;29.34;50.07
72114;SHT31;59989;46.220;19.888;2023-06-05T13:21:14;28.61;50.28
72114;SHT31;59989;46.220;19.888;2023-06-05T13:24:18;30.13;47.48
72114;SHT31;59989;46.220;19.888;2023-06-05T13:27:20;30.96;45.56
72114;SHT31;59989;46.220;19.888;2023-06-05T13:30:25;28.81;49.56
72114;SHT31;59989;46.220;19.888;2023-06-05T13:33:27;27.95;51.56
72114;SHT31;59989;46.220;19.888;2023-06-05T13:36:30;27.49;52.46
72114;SHT31;59989;46.220;19.888;2023-06-05T13:39:34;27.42;53.64
72114;SHT31;59989;46.220;19.888;2023-06-05T13:42:36;27.65;52.88
72114;SHT31;59989;46.220;19.888;2023-06-05T13:45:39;28.00;52.41
72114;SHT31;59989;46.220;19.888;2023-06-05T13:48:41;27.90;51.87
72114;SHT31;59989;46.220;19.888;2023-06-05T13:51:44;27.54;53.30
72114;SHT31;59989;46.220;19.888;2023-06-05T13:54:46;27.76;52.99
72114;SHT31;59989;46.220;19.888;2023-06-05T13:57:50;27.36;53.74
72114;SHT31;59989;46.220;19.888;2023-06-05T14:00:52;27.17;54.31
72114;SHT31;59989;46.220;19.888;2023-06-05T14:03:58;26.85;54.92
72114;SHT31;59989;46.220;19.888;2023-06-05T14:07:00;26.85;55.04
72114;SHT31;59989;46.220;19.888;2023-06-05T14:10:06;26.88;55.28
72114;SHT31;59989;46.220;19.888;2023-06-05T14:13:09;26.52;55.82
72114;SHT31;59989;46.220;19.888;2023-06-05T14:16:12;26.65;56.36
72114;SHT31;59989;46.220;19.888;2023-06-05T14:19:15;26.88;55.93
72114;SHT31;59989;46.220;19.888;2023-06-05T14:22:17;26.84;55.52
72114;SHT31;59989;46.220;19.888;2023-06-05T14:25:20;26.95;54.43
72114;SHT31;59989;46.220;19.888;2023-06-05T14:28:23;26.92;54.87
72114;SHT31;59989;46.220;19.888;2023-06-05T14:31:25;26.69;55.05
72114;SHT31;59989;46.220;19.888;2023-06-05T14:34:30;26.57;55.79
72114;SHT31;59989;46.220;19.888;2023-06-05T14:37:32;26.58;55.45
72114;SHT31;59989;46.220;19.888;2023-06-05T14:40:35;26.54;55.68
72114;SHT31;59989;46.220;19.888;2023-06-05T14:43:37;26.36;55.07
72114;SHT31;59989;46.220;19.888;2023-06-05T14:46:39;26.40;55.45
72114;SHT31;59989;46.220;19.888;2023-06-05T14:49:42;26.69;55.06
72114;SHT31;59989;46.220;19.888;2023-06-05T14:52:45;26.65;55.04
72114;SHT31;59989;46.220;19.888;2023-06-05T14:55:48;26.71;55.16
72114;SHT31;59989;46.220;19.888;2023-06-05T14:58:50;26.71;55.52
72114;SHT31;59989;46.220;19.888;2023-06-05T15:01:54;26.62;55.95
72114;SHT31;59989;46.220;19.888;2023-06-05T15:04:57;26.68;56.46
72114;SHT31;59989;46.220;19.888;2023-06-05T15:08:02;26.61;56.91
72114;SHT31;59989;46.220;19.888;2023-06-05T15:11:07;26.64;56.39
72114;SHT31;59989;46.220;19.888;2023-06-05T15:14:10;26.58;55.93
72114;SHT31;59989;46.220;19.888;2023-06-05T15:17:13;26.52;55.63
72114;SHT31;59989;46.220;19.888;2023-06-05T15:20:15;26.34;56.15
72114;SHT31;59989;46.220;19.888;2023-06-05T15:23:18;26.04;56.24
72114;SHT31;59989;46.220;19.888;2023-06-05T15:26:21;25.99;56.86
72114;SHT31;59989;46.220;19.888;2023-06-05T15:29:23;25.97;56.98
72114;SHT31;59989;46.220;19.888;2023-06-05T15:32:26;25.92;57.25
72114;SHT31;59989;46.220;19.888;2023-06-05T15:35:28;26.12;57.04
72114;SHT31;59989;46.220;19.888;2023-06-05T15:38:31;25.96;57.28
72114;SHT31;59989;46.220;19.888;2023-06-05T15:41:33;25.87;58.00
72114;SHT31;59989;46.220;19.888;2023-06-05T15:44:39;25.58;57.77
72114;SHT31;59989;46.220;19.888;2023-06-05T15:47:41;25.51;58.23
72114;SHT31;59989;46.220;19.888;2023-06-05T15:50:44;25.51;57.83
72114;SHT31;59989;46.220;19.888;2023-06-05T15:53:47;25.45;58.92
72114;SHT31;59989;46.220;19.888;2023-06-05T15:57:07;25.42;58.77
72114;SHT31;59989;46.220;19.888;2023-06-05T16:00:10;25.35;58.94
72114;SHT31;59989;46.220;19.888;2023-06-05T16:03:13;25.37;59.42
72114;SHT31;59989;46.220;19.888;2023-06-05T16:06:17;25.34;59.30
72114;SHT31;59989;46.220;19.888;2023-06-05T16:09:19;25.34;60.05
72114;SHT31;59989;46.220;19.888;2023-06-05T16:12:22;25.24;59.85
72114;SHT31;59989;46.220;19.888;2023-06-05T16:15:24;25.12;60.05
72114;SHT31;59989;46.220;19.888;2023-06-05T16:18:29;25.11;60.28
72114;SHT31;59989;46.220;19.888;2023-06-05T16:21:31;25.12;60.56
72114;SHT31;59989;46.220;19.888;2023-06-05T16:24:33;25.17;60.87
72114;SHT31;59989;46.220;19.888;2023-06-05T16:27:37;25.21;60.76
72114;SHT31;59989;46.220;19.888;2023-06-05T16:30:39;25.25;61.15
72114;SHT31;59989;46.220;19.888;2023-06-05T16:33:42;25.11;61.19
72114;SHT31;59989;46.220;19.888;2023-06-05T16:36:45;24.98;61.26
72114;SHT31;59989;46.220;19.888;2023-06-05T16:39:47;25.01;61.19
72114;SHT31;59989;46.220;19.888;2023-06-05T16:42:51;24.95;62.23
72114;SHT31;59989;46.220;19.888;2023-06-05T16:45:54;24.83;62.15
72114;SHT31;59989;46.220;19.888;2023-06-05T16:48:57;24.76;63.11
72114;SHT31;59989;46.220;19.888;2023-06-05T16:51:59;24.67;63.20
72114;SHT31;59989;46.220;19.888;2023-06-05T16:55:02;24.67;63.44
72114;SHT31;59989;46.220;19.888;2023-06-05T16:58:05;24.67;64.11
72114;SHT31;59989;46.220;19.888;2023-06-05T17:01:08;24.64;63.10
72114;SHT31;59989;46.220;19.888;2023-06-05T17:04:11;24.67;64.34
72114;SHT31;59989;46.220;19.888;2023-06-05T17:07:14;24.59;63.75
72114;SHT31;59989;46.220;19.888;2023-06-05T17:10:17;24.53;64.71
72114;SHT31;59989;46.220;19.888;2023-06-05T17:13:20;24.51;65.48
72114;SHT31;59989;46.220;19.888;2023-06-05T17:16:22;24.43;66.28
72114;SHT31;59989;46.220;19.888;2023-06-05T17:19:26;24.37;65.28
72114;SHT31;59989;46.220;19.888;2023-06-05T17:22:28;24.33;65.95
72114;SHT31;59989;46.220;19.888;2023-06-05T17:25:31;24.19;66.13
72114;SHT31;59989;46.220;19.888;2023-06-05T17:28:33;24.15;65.62
72114;SHT31;59989;46.220;19.888;2023-06-05T17:31:36;24.14;67.62
72114;SHT31;59989;46.220;19.888;2023-06-05T17:34:38;24.05;67.95
72114;SHT31;59989;46.220;19.888;2023-06-05T17:37:41;23.89;66.61
72114;SHT31;59989;46.220;19.888;2023-06-05T17:40:43;23.84;68.71
72114;SHT31;59989;46.220;19.888;2023-06-05T17:43:49;23.82;68.36
72114;SHT31;59989;46.220;19.888;2023-06-05T17:46:51;23.77;68.91
72114;SHT31;59989;46.220;19.888;2023-06-05T17:49:54;23.60;68.65
72114;SHT31;59989;46.220;19.888;2023-06-05T17:52:57;23.45;69.99
72114;SHT31;59989;46.220;19.888;2023-06-05T17:56:00;23.42;68.66
72114;SHT31;59989;46.220;19.888;2023-06-05T17:59:03;23.40;69.09
72114;SHT31;59989;46.220;19.888;2023-06-05T18:02:06;23.37;68.84
72114;SHT31;59989;46.220;19.888;2023-06-05T18:05:09;23.34;69.16
72114;SHT31;59989;46.220;19.888;2023-06-05T18:08:12;23.18;70.94
72114;SHT31;59989;46.220;19.888;2023-06-05T18:11:15;22.99;70.35
72114;SHT31;59989;46.220;19.888;2023-06-05T18:14:18;22.98;70.05
72114;SHT31;59989;46.220;19.888;2023-06-05T18:17:20;22.94;70.78
72114;SHT31;59989;46.220;19.888;2023-06-05T18:20:23;22.91;70.57
72114;SHT31;59989;46.220;19.888;2023-06-05T18:23:26;22.79;71.06
72114;SHT31;59989;46.220;19.888;2023-06-05T18:26:28;22.75;71.37
72114;SHT31;59989;46.220;19.888;2023-06-05T18:29:31;22.69;71.23
72114;SHT31;59989;46.220;19.888;2023-06-05T18:32:33;22.64;72.19
72114;SHT31;59989;46.220;19.888;2023-06-05T18:35:36;22.58;71.25
72114;SHT31;59989;46.220;19.888;2023-06-05T18:38:39;22.55;71.48
72114;SHT31;59989;46.220;19.888;2023-06-05T18:41:41;22.54;71.94
72114;SHT31;59989;46.220;19.888;2023-06-05T18:44:45;22.47;72.41
72114;SHT31;59989;46.220;19.888;2023-06-05T18:47:47;22.43;72.27
72114;SHT31;59989;46.220;19.888;2023-06-05T18:50:50;22.39;72.55
72114;SHT31;59989;46.220;19.888;2023-06-05T18:53:52;22.37;72.79
72114;SHT31;59989;46.220;19.888;2023-06-05T18:56:54;22.37;72.67
72114;SHT31;59989;46.220;19.888;2023-06-05T18:59:57;22.33;72.88
72114;SHT31;59989;46.220;19.888;2023-06-05T19:02:59;22.34;73.03
72114;SHT31;59989;46.220;19.888;2023-06-05T19:06:02;22.31;73.47
72114;SHT31;59989;46.220;19.888;2023-06-05T19:09:05;22.29;73.55
72114;SHT31;59989;46.220;19.888;2023-06-05T19:12:08;22.24;74.02
72114;SHT31;59989;46.220;19.888;2023-06-05T19:15:10;22.24;74.65
72114;SHT31;59989;46.220;19.888;2023-06-05T19:18:13;22.23;74.65
72114;SHT31;59989;46.220;19.888;2023-06-05T19:21:18;22.17;75.18
72114;SHT31;59989;46.220;19.888;2023-06-05T19:24:21;22.14;75.26
72114;SHT31;59989;46.220;19.888;2023-06-05T19:27:23;22.13;74.34
72114;SHT31;59989;46.220;19.888;2023-06-05T19:30:26;21.81;77.34